Time;durP1;ratioP1;P1;durP2;ratioP2;P2;SDS_P1;SDS_P2;PMS_P1;PMS_P2;Temp;Humidity;BMP_temperature;BMP_pressure;BME280_temperature;BME280_humidity;BME280_pressure;Samples;Min_cycle;Max_cycle;Signal;HPM_P1;HPM_P2
2022/09/03 00:01:49;;;;;;;;;;;15.10;99.90;;;;;;5044756;28;20243;-82
2022/09/03 00:04:22;;;;;;;;;;;15.00;99.90;;;;;;5042141;28;19921;-83
2022/09/03 00:06:52;;;;;;;;;;;15.00;99.90;;;;;;5045165;28;19921;-82
2022/09/03 00:09:22;;;;;;;;;;;15.00;99.90;;;;;;5045010;28;20388;-83
2022/09/03 00:11:53;;;;;;;;;;;14.90;99.90;;;;;;5044823;28;20179;-83
2022/09/03 00:14:22;;;;;;;;;;;14.90;99.90;;;;;;5044737;28;20179;-82
2022/09/03 00:16:52;;;;;;;;;;;14.90;99.90;;;;;;5044602;28;19931;-82
2022/09/03 00:19:20;;;;;;;;;;;14.90;99.90;;;;;;5044433;28;19952;-82
2022/09/03 00:21:48;;;;;;;;;;;14.80;99.90;;;;;;5044215;28;19956;-82
2022/09/03 00:24:17;;;;;;;;;;;14.80;99.90;;;;;;5038650;28;19921;-83
2022/09/03 00:26:45;;;;;;;;;;;14.80;99.90;;;;;;5046204;28;20255;-83
2022/09/03 00:29:15;;;;;;;;;;;14.80;99.90;;;;;;5053350;28;19944;-82
2022/09/03 00:31:44;;;;;;;;;;;14.70;99.90;;;;;;5055411;28;19937;-82
2022/09/03 00:34:13;;;;;;;;;;;14.70;99.90;;;;;;5053016;28;20172;-83
2022/09/03 00:36:42;;;;;;;;;;;14.70;99.90;;;;;;5066133;28;19921;-83
2022/09/03 00:39:09;;;;;;;;;;;14.60;99.90;;;;;;5065471;28;19927;-83
2022/09/03 00:41:40;;;;;;;;;;;14.60;99.90;;;;;;5065395;28;19928;-83
2022/09/03 00:44:13;;;;;;;;;;;14.50;99.90;;;;;;5064909;28;19928;-85
2022/09/03 00:46:45;;;;;;;;;;;14.50;99.90;;;;;;5050477;28;19944;-83
2022/09/03 00:49:24;;;;;;;;;;;14.50;99.90;;;;;;5045314;28;19945;-83
2022/09/03 00:51:55;;;;;;;;;;;14.40;99.90;;;;;;5045701;28;19992;-83
2022/09/03 00:54:27;;;;;;;;;;;14.30;99.90;;;;;;5044689;28;19940;-83
2022/09/03 00:56:55;;;;;;;;;;;14.30;99.90;;;;;;5045208;28;19988;-83
2022/09/03 00:59:28;;;;;;;;;;;14.30;99.90;;;;;;5045036;28;20224;-82
2022/09/03 01:02:02;;;;;;;;;;;14.20;99.90;;;;;;5045303;28;19928;-82
2022/09/03 01:04:35;;;;;;;;;;;14.20;99.90;;;;;;5042974;28;20070;-82
2022/09/03 01:07:04;;;;;;;;;;;14.20;99.90;;;;;;5045130;28;19921;-85
2022/09/03 01:09:38;;;;;;;;;;;14.10;99.90;;;;;;5044937;28;19945;-85
2022/09/03 01:12:12;;;;;;;;;;;14.10;99.90;;;;;;5044969;28;20275;-84
2022/09/03 01:14:43;;;;;;;;;;;14.00;99.90;;;;;;5044241;28;19928;-83
2022/09/03 01:17:15;;;;;;;;;;;14.00;99.90;;;;;;5044829;28;19967;-84
2022/09/03 01:20:00;;;;;;;;;;;14.00;99.90;;;;;;5044950;28;19921;-84
2022/09/03 01:22:45;;;;;;;;;;;14.00;99.90;;;;;;5044431;28;20305;-85
2022/09/03 01:25:16;;;;;;;;;;;13.90;99.90;;;;;;5045215;28;19928;-84
2022/09/03 01:27:51;;;;;;;;;;;13.90;99.90;;;;;;5045713;28;19940;-84
2022/09/03 01:30:21;;;;;;;;;;;13.80;99.90;;;;;;5045191;28;19928;-84
2022/09/03 01:32:51;;;;;;;;;;;13.80;99.90;;;;;;5044468;28;19921;-84
2022/09/03 01:35:24;;;;;;;;;;;13.70;99.90;;;;;;5044707;28;19949;-84
2022/09/03 01:37:58;;;;;;;;;;;13.70;99.90;;;;;;5044529;28;19921;-85
2022/09/03 01:40:30;;;;;;;;;;;13.60;99.90;;;;;;5045008;28;19925;-84
2022/09/03 01:43:04;;;;;;;;;;;13.60;99.90;;;;;;5043769;28;19956;-84
2022/09/03 01:45:38;;;;;;;;;;;13.60;99.90;;;;;;5025053;28;19982;-84
2022/09/03 01:48:13;;;;;;;;;;;13.60;99.90;;;;;;5030186;28;19922;-84
2022/09/03 01:50:44;;;;;;;;;;;13.60;99.90;;;;;;5048586;28;19959;-84
2022/09/03 01:53:18;;;;;;;;;;;13.60;99.90;;;;;;5048122;28;19921;-84
2022/09/03 01:55:54;;;;;;;;;;;13.50;99.90;;;;;;5048172;28;19920;-84
2022/09/03 01:58:26;;;;;;;;;;;13.50;99.90;;;;;;5048196;28;19921;-84
2022/09/03 02:00:58;;;;;;;;;;;13.40;99.90;;;;;;5048077;28;20128;-85
2022/09/03 02:03:25;;;;;;;;;;;13.40;99.90;;;;;;5047275;28;20231;-85
2022/09/03 02:05:52;;;;;;;;;;;13.40;99.90;;;;;;5047968;28;19928;-85
2022/09/03 02:08:19;;;;;;;;;;;13.30;99.90;;;;;;5047867;28;19921;-85
2022/09/03 02:10:47;;;;;;;;;;;13.30;99.90;;;;;;5047998;28;20217;-83
2022/09/03 02:13:26;;;;;;;;;;;13.30;99.90;;;;;;5046608;28;19921;-84
2022/09/03 02:15:57;;;;;;;;;;;13.20;99.90;;;;;;5047314;28;19922;-84
2022/09/03 02:18:25;;;;;;;;;;;13.20;99.90;;;;;;5047664;28;19921;-84
2022/09/03 02:20:52;;;;;;;;;;;13.10;99.90;;;;;;5045097;28;19971;-84
2022/09/03 02:23:19;;;;;;;;;;;13.10;99.90;;;;;;5046307;28;19989;-84
2022/09/03 02:25:48;;;;;;;;;;;13.00;99.90;;;;;;5041215;28;19932;-84
2022/09/03 02:28:15;;;;;;;;;;;13.00;99.90;;;;;;5047245;28;19921;-84
2022/09/03 02:30:42;;;;;;;;;;;13.00;99.90;;;;;;5046893;28;19948;-85
2022/09/03 02:33:10;;;;;;;;;;;12.90;99.90;;;;;;5046500;28;20016;-82
2022/09/03 02:35:37;;;;;;;;;;;12.90;99.90;;;;;;5047303;28;19921;-82
2022/09/03 02:38:10;;;;;;;;;;;12.80;99.90;;;;;;5047293;28;20195;-83
2022/09/03 02:40:38;;;;;;;;;;;12.80;99.90;;;;;;5047189;28;19996;-82
2022/09/03 02:43:05;;;;;;;;;;;12.80;99.90;;;;;;5046575;28;19929;-82
2022/09/03 02:45:32;;;;;;;;;;;12.80;99.90;;;;;;5047289;28;19987;-83
2022/09/03 02:48:00;;;;;;;;;;;12.80;99.90;;;;;;5047400;28;19955;-82
2022/09/03 02:50:28;;;;;;;;;;;12.80;99.90;;;;;;5060352;22;20217;-68
2022/09/03 02:52:54;;;;;;;;;;;12.80;99.90;;;;;;5044988;28;20137;-68
2022/09/03 02:55:21;;;;;;;;;;;12.80;99.90;;;;;;5040081;28;19984;-68
2022/09/03 02:57:48;;;;;;;;;;;12.70;99.90;;;;;;5025869;28;19968;-68
2022/09/03 03:00:14;;;;;;;;;;;12.70;99.90;;;;;;5025662;28;19992;-68
2022/09/03 03:02:41;;;;;;;;;;;12.70;99.90;;;;;;5024875;28;19941;-69
2022/09/03 03:05:09;;;;;;;;;;;12.70;99.90;;;;;;5028644;28;19921;-68
2022/09/03 03:07:39;;;;;;;;;;;12.70;99.90;;;;;;5045390;28;19921;-69
2022/09/03 03:10:06;;;;;;;;;;;12.70;99.90;;;;;;5045375;28;19948;-68
2022/09/03 03:12:35;;;;;;;;;;;12.60;99.90;;;;;;5043973;28;19984;-68
2022/09/03 03:15:02;;;;;;;;;;;12.50;99.90;;;;;;5045122;28;19953;-69
2022/09/03 03:17:30;;;;;;;;;;;12.60;99.90;;;;;;5045087;28;20212;-69
2022/09/03 03:19:57;;;;;;;;;;;12.50;99.90;;;;;;5044741;28;19953;-68
2022/09/03 03:22:23;;;;;;;;;;;12.50;99.90;;;;;;5045027;28;19921;-69
2022/09/03 03:24:51;;;;;;;;;;;12.40;99.90;;;;;;5044508;28;20140;-68
2022/09/03 03:27:19;;;;;;;;;;;12.40;99.90;;;;;;5045041;28;19984;-68
2022/09/03 03:29:45;;;;;;;;;;;12.40;99.90;;;;;;5045037;28;20165;-69
2022/09/03 03:32:12;;;;;;;;;;;12.30;99.90;;;;;;5044862;28;19928;-68
2022/09/03 03:34:38;;;;;;;;;;;12.30;99.90;;;;;;5043973;28;19959;-68
2022/09/03 03:37:05;;;;;;;;;;;12.30;99.90;;;;;;5044730;28;19967;-68
2022/09/03 03:39:32;;;;;;;;;;;12.30;99.90;;;;;;5044477;28;19979;-68
2022/09/03 03:42:00;;;;;;;;;;;12.20;99.90;;;;;;5044757;28;20129;-68
2022/09/03 03:44:28;;;;;;;;;;;12.20;99.90;;;;;;5044008;28;19964;-68
2022/09/03 03:46:54;;;;;;;;;;;12.20;99.90;;;;;;5044506;28;19993;-68
2022/09/03 03:49:21;;;;;;;;;;;12.10;99.90;;;;;;5044169;28;19984;-68
2022/09/03 03:51:47;;;;;;;;;;;12.10;99.90;;;;;;5044441;28;19921;-69
2022/09/03 03:54:14;;;;;;;;;;;12.10;99.90;;;;;;5044052;28;19957;-68
2022/09/03 03:56:41;;;;;;;;;;;12.10;99.90;;;;;;5044073;28;19921;-68
2022/09/03 03:59:09;;;;;;;;;;;12.10;99.90;;;;;;5044595;28;19921;-68
2022/09/03 04:01:35;;;;;;;;;;;12.10;99.90;;;;;;5044356;28;19996;-69
2022/09/03 04:04:04;;;;;;;;;;;12.00;99.90;;;;;;5043532;28;19988;-68
2022/09/03 04:06:31;;;;;;;;;;;12.00;99.90;;;;;;5044372;28;19928;-68
2022/09/03 04:08:57;;;;;;;;;;;12.00;99.90;;;;;;5044073;28;19921;-68
2022/09/03 04:11:24;;;;;;;;;;;12.00;99.90;;;;;;5043851;28;19956;-68
2022/09/03 04:13:52;;;;;;;;;;;12.00;99.90;;;;;;5043263;28;20217;-68
2022/09/03 04:16:20;;;;;;;;;;;12.00;99.90;;;;;;5044222;28;19984;-68
2022/09/03 04:18:48;;;;;;;;;;;12.00;99.90;;;;;;5044152;28;19927;-70
2022/09/03 04:21:15;;;;;;;;;;;12.00;99.90;;;;;;5043764;28;19921;-68
2022/09/03 04:23:43;;;;;;;;;;;12.00;99.90;;;;;;5043306;28;19920;-68
2022/09/03 04:26:11;;;;;;;;;;;11.90;99.90;;;;;;5044062;28;19996;-68
2022/09/03 04:28:38;;;;;;;;;;;11.90;99.90;;;;;;5043921;28;19921;-68
2022/09/03 04:31:05;;;;;;;;;;;11.90;99.90;;;;;;5044153;28;20280;-68
2022/09/03 04:33:34;;;;;;;;;;;11.90;99.90;;;;;;5043328;28;19963;-68
2022/09/03 04:36:02;;;;;;;;;;;11.90;99.90;;;;;;5043979;28;20296;-68
2022/09/03 04:38:29;;;;;;;;;;;11.90;99.90;;;;;;5043545;28;20124;-68
2022/09/03 04:40:56;;;;;;;;;;;11.90;99.90;;;;;;5043531;28;19921;-68
2022/09/03 04:43:23;;;;;;;;;;;11.90;99.90;;;;;;5043200;28;19996;-68
2022/09/03 04:45:49;;;;;;;;;;;11.90;99.90;;;;;;5043488;28;19921;-68
2022/09/03 04:48:16;;;;;;;;;;;11.90;99.90;;;;;;5043442;28;20276;-68
2022/09/03 04:50:44;;;;;;;;;;;11.90;99.90;;;;;;5043430;28;19988;-68
2022/09/03 04:53:10;;;;;;;;;;;12.00;99.90;;;;;;5043203;28;19929;-67
2022/09/03 04:55:38;;;;;;;;;;;11.90;99.90;;;;;;5043602;28;19921;-68
2022/09/03 04:58:06;;;;;;;;;;;11.80;99.90;;;;;;5043296;28;20212;-68
2022/09/03 05:00:33;;;;;;;;;;;11.70;99.90;;;;;;5043473;28;19921;-68
2022/09/03 05:03:00;;;;;;;;;;;11.80;99.90;;;;;;5043178;28;19960;-68
2022/09/03 05:05:27;;;;;;;;;;;11.80;99.90;;;;;;5043397;28;19921;-69
2022/09/03 05:07:58;;;;;;;;;;;11.80;99.90;;;;;;5043381;28;19925;-68
2022/09/03 05:10:24;;;;;;;;;;;11.80;99.90;;;;;;5043397;28;19929;-68
2022/09/03 05:12:57;;;;;;;;;;;11.80;99.90;;;;;;5042998;28;19928;-68
2022/09/03 05:15:24;;;;;;;;;;;11.90;99.90;;;;;;5042803;28;19985;-67
2022/09/03 05:17:55;;;;;;;;;;;11.90;99.90;;;;;;5043147;28;19940;-66
2022/09/03 05:20:22;;;;;;;;;;;11.90;99.90;;;;;;5042974;28;19963;-66
2022/09/03 05:22:48;;;;;;;;;;;12.00;99.90;;;;;;5044585;28;19928;-66
2022/09/03 05:25:16;;;;;;;;;;;12.00;99.90;;;;;;5047265;28;19983;-66
2022/09/03 05:27:43;;;;;;;;;;;12.10;99.90;;;;;;5047010;28;20260;-66
2022/09/03 05:30:10;;;;;;;;;;;12.10;99.90;;;;;;5046764;28;20007;-66
2022/09/03 05:32:37;;;;;;;;;;;12.20;99.90;;;;;;5046876;28;20156;-66
2022/09/03 05:35:04;;;;;;;;;;;12.20;99.90;;;;;;5046477;28;19966;-66
2022/09/03 05:37:30;;;;;;;;;;;12.20;99.90;;;;;;5046554;28;19988;-66
2022/09/03 05:39:57;;;;;;;;;;;12.30;99.90;;;;;;5046857;28;19980;-66
2022/09/03 05:42:27;;;;;;;;;;;12.30;99.90;;;;;;5046339;28;20295;-66
2022/09/03 05:44:53;;;;;;;;;;;12.40;99.90;;;;;;5046386;28;19921;-66
2022/09/03 05:47:20;;;;;;;;;;;12.40;99.90;;;;;;5046772;28;19921;-66
2022/09/03 05:49:47;;;;;;;;;;;12.50;99.90;;;;;;5046564;28;19976;-66
2022/09/03 05:52:13;;;;;;;;;;;12.50;99.90;;;;;;5046735;28;19928;-66
2022/09/03 05:54:40;;;;;;;;;;;12.50;99.90;;;;;;5045690;28;19988;-66
2022/09/03 05:57:07;;;;;;;;;;;12.50;99.90;;;;;;5046359;28;19928;-67
2022/09/03 05:59:34;;;;;;;;;;;12.60;99.90;;;;;;5046111;28;19921;-66
2022/09/03 06:02:01;;;;;;;;;;;12.70;99.90;;;;;;5046188;28;19921;-66
2022/09/03 06:04:28;;;;;;;;;;;12.70;99.90;;;;;;5045647;28;19932;-66
2022/09/03 06:06:55;;;;;;;;;;;12.80;99.90;;;;;;5046305;28;19941;-67
2022/09/03 06:09:22;;;;;;;;;;;12.90;99.90;;;;;;5046064;28;19952;-66
2022/09/03 06:11:49;;;;;;;;;;;13.00;99.90;;;;;;5046321;28;19988;-66
2022/09/03 06:14:16;;;;;;;;;;;13.00;99.90;;;;;;5045639;28;19991;-66
2022/09/03 06:16:45;;;;;;;;;;;13.10;99.90;;;;;;5046124;28;19925;-66
2022/09/03 06:19:13;;;;;;;;;;;13.20;99.90;;;;;;5044681;28;19960;-66
2022/09/03 06:21:41;;;;;;;;;;;13.30;99.90;;;;;;5045769;28;19960;-66
2022/09/03 06:24:08;;;;;;;;;;;13.40;99.90;;;;;;5045139;28;20240;-66
2022/09/03 06:26:35;;;;;;;;;;;13.50;99.90;;;;;;5045706;28;20100;-66
2022/09/03 06:29:02;;;;;;;;;;;13.60;99.90;;;;;;5045675;28;20213;-67
2022/09/03 06:31:28;;;;;;;;;;;13.70;99.90;;;;;;5045974;28;19956;-68
2022/09/03 06:33:56;;;;;;;;;;;13.80;99.90;;;;;;5044833;28;19992;-67
2022/09/03 06:36:25;;;;;;;;;;;13.90;99.90;;;;;;5040716;28;20153;-67
2022/09/03 06:38:52;;;;;;;;;;;14.00;99.90;;;;;;5045419;28;19980;-67
2022/09/03 06:41:23;;;;;;;;;;;14.10;99.90;;;;;;5045784;28;20008;-67
2022/09/03 06:43:51;;;;;;;;;;;14.20;99.90;;;;;;5044916;28;19928;-67
2022/09/03 06:46:19;;;;;;;;;;;14.30;99.90;;;;;;5045230;28;20231;-66
2022/09/03 06:48:46;;;;;;;;;;;14.20;99.90;;;;;;5045504;28;20000;-67
2022/09/03 06:51:15;;;;;;;;;;;14.30;99.90;;;;;;5045499;28;19921;-67
2022/09/03 06:53:42;;;;;;;;;;;14.40;99.90;;;;;;5044687;28;19984;-67
2022/09/03 06:56:09;;;;;;;;;;;14.50;99.90;;;;;;5045178;28;19928;-67
2022/09/03 06:58:37;;;;;;;;;;;14.60;99.90;;;;;;5045150;28;20215;-66
2022/09/03 07:01:05;;;;;;;;;;;14.70;99.90;;;;;;5045245;28;19921;-67
2022/09/03 07:03:32;;;;;;;;;;;14.70;99.90;;;;;;5044439;28;19921;-67
2022/09/03 07:06:01;;;;;;;;;;;14.90;99.90;;;;;;5045248;28;19921;-67
2022/09/03 07:08:31;;;;;;;;;;;15.10;99.90;;;;;;5045056;28;20113;-67
2022/09/03 07:10:58;;;;;;;;;;;15.30;99.90;;;;;;5045045;28;19983;-67
2022/09/03 07:13:25;;;;;;;;;;;15.40;99.90;;;;;;5044078;28;19964;-67
2022/09/03 07:15:58;;;;;;;;;;;15.40;99.90;;;;;;5044495;28;19925;-67
2022/09/03 07:18:24;;;;;;;;;;;15.60;99.90;;;;;;5044987;28;19925;-68
2022/09/03 07:20:51;;;;;;;;;;;15.70;99.90;;;;;;5044959;28;19928;-67
2022/09/03 07:23:17;;;;;;;;;;;15.80;99.90;;;;;;5044031;28;19928;-67
2022/09/03 07:25:52;;;;;;;;;;;15.90;99.90;;;;;;5044692;28;19984;-67
2022/09/03 07:28:18;;;;;;;;;;;16.00;99.90;;;;;;5044654;28;19988;-67
2022/09/03 07:30:45;;;;;;;;;;;16.10;99.90;;;;;;5044775;28;19952;-67
2022/09/03 07:33:12;;;;;;;;;;;16.20;99.90;;;;;;5043671;28;19927;-67
2022/09/03 07:35:39;;;;;;;;;;;16.30;99.90;;;;;;5043961;28;19984;-67
2022/09/03 07:38:06;;;;;;;;;;;16.30;99.90;;;;;;5044038;28;19992;-67
2022/09/03 07:40:33;;;;;;;;;;;16.30;99.90;;;;;;5044211;28;19921;-67
2022/09/03 07:43:03;;;;;;;;;;;16.50;99.90;;;;;;5043398;28;19952;-67
2022/09/03 07:45:31;;;;;;;;;;;16.50;99.90;;;;;;5043421;28;19925;-67
2022/09/03 07:47:57;;;;;;;;;;;16.60;99.90;;;;;;5044047;28;19952;-67
2022/09/03 07:50:24;;;;;;;;;;;16.70;99.90;;;;;;5043472;28;19979;-67
2022/09/03 07:52:55;;;;;;;;;;;16.70;99.90;;;;;;5043115;28;19921;-67
2022/09/03 07:55:22;;;;;;;;;;;16.80;99.90;;;;;;5043972;28;19948;-67
2022/09/03 07:57:48;;;;;;;;;;;16.80;99.90;;;;;;5043915;28;19928;-67
2022/09/03 08:00:17;;;;;;;;;;;16.80;99.90;;;;;;5044039;28;19923;-67
2022/09/03 08:02:43;;;;;;;;;;;16.80;99.90;;;;;;5042263;28;19927;-67
2022/09/03 08:05:10;;;;;;;;;;;16.80;99.90;;;;;;5043755;28;19988;-67
2022/09/03 08:07:37;;;;;;;;;;;16.80;99.90;;;;;;5043823;28;19928;-67
2022/09/03 08:10:04;;;;;;;;;;;16.80;99.90;;;;;;5043483;28;19988;-67
2022/09/03 08:12:31;;;;;;;;;;;16.80;99.90;;;;;;5043394;28;19927;-67
2022/09/03 08:14:58;;;;;;;;;;;16.80;99.90;;;;;;5043389;28;19928;-67
2022/09/03 08:17:26;;;;;;;;;;;16.80;99.90;;;;;;5043748;28;20086;-67
2022/09/03 08:19:52;;;;;;;;;;;16.80;99.90;;;;;;5043177;28;19984;-67
2022/09/03 08:22:21;;;;;;;;;;;16.90;99.90;;;;;;5043338;28;19935;-67
2022/09/03 08:24:49;;;;;;;;;;;16.90;99.90;;;;;;5042669;28;19921;-66
2022/09/03 08:27:16;;;;;;;;;;;17.00;99.90;;;;;;5043624;28;19952;-67
2022/09/03 08:29:45;;;;;;;;;;;17.00;99.90;;;;;;5043576;28;19948;-68
2022/09/03 08:32:12;;;;;;;;;;;17.10;99.90;;;;;;5043204;28;20212;-67
2022/09/03 08:34:40;;;;;;;;;;;17.10;99.90;;;;;;5042400;28;19980;-67
2022/09/03 08:37:12;;;;;;;;;;;17.10;99.90;;;;;;5039992;28;19921;-67
2022/09/03 08:39:38;;;;;;;;;;;17.20;99.90;;;;;;5043231;28;19929;-67
2022/09/03 08:42:32;;;;;;;;;;;17.20;99.90;;;;;;5043364;28;19928;-67
2022/09/03 08:45:01;;;;;;;;;;;17.30;99.90;;;;;;4987771;28;19944;-67
2022/09/03 08:47:30;;;;;;;;;;;17.40;99.90;;;;;;5023385;28;19921;-67
2022/09/03 08:50:01;;;;;;;;;;;17.50;99.90;;;;;;5044147;23;20176;-70
2022/09/03 08:52:31;;;;;;;;;;;17.60;99.90;;;;;;5056385;28;19944;-72
2022/09/03 08:55:01;;;;;;;;;;;17.70;99.90;;;;;;5056305;28;19984;-72
2022/09/03 08:57:32;;;;;;;;;;;17.90;99.90;;;;;;5053946;28;19984;-72
2022/09/03 08:59:59;;;;;;;;;;;18.00;99.90;;;;;;5043559;28;19927;-72
2022/09/03 09:02:32;;;;;;;;;;;18.10;99.90;;;;;;5043190;28;19952;-73
2022/09/03 09:05:05;;;;;;;;;;;18.30;99.90;;;;;;5043958;28;19960;-72
2022/09/03 09:07:37;;;;;;;;;;;18.40;99.90;;;;;;5062589;28;19920;-72
2022/09/03 09:10:10;;;;;;;;;;;18.40;99.90;;;;;;5063000;28;19983;-71
2022/09/03 09:12:41;;;;;;;;;;;18.40;99.90;;;;;;5063038;28;19956;-71
2022/09/03 09:15:10;;;;;;;;;;;18.40;99.90;;;;;;5063364;28;19929;-71
2022/09/03 09:17:45;;;;;;;;;;;18.40;99.90;;;;;;5063544;28;20163;-71
2022/09/03 09:20:18;;;;;;;;;;;18.50;99.90;;;;;;5063098;28;20212;-71
2022/09/03 09:22:46;;;;;;;;;;;18.60;99.90;;;;;;5062803;28;19927;-72
2022/09/03 09:25:15;;;;;;;;;;;18.70;99.90;;;;;;5063283;28;19984;-71
2022/09/03 09:27:48;;;;;;;;;;;18.70;99.90;;;;;;5062975;28;19921;-71
2022/09/03 09:30:16;;;;;;;;;;;18.70;99.90;;;;;;5063202;28;19925;-71
2022/09/03 09:32:43;;;;;;;;;;;18.70;99.90;;;;;;5063001;28;19928;-72
2022/09/03 09:35:11;;;;;;;;;;;18.80;99.90;;;;;;5063073;28;19959;-71
2022/09/03 09:37:47;;;;;;;;;;;18.80;99.90;;;;;;5063091;28;20089;-71
2022/09/03 09:40:24;;;;;;;;;;;18.90;99.90;;;;;;5062767;28;20267;-70
2022/09/03 09:42:57;;;;;;;;;;;19.00;99.90;;;;;;5062457;28;19920;-71
2022/09/03 09:45:24;;;;;;;;;;;19.10;99.90;;;;;;5063741;28;19929;-71
2022/09/03 09:47:55;;;;;;;;;;;19.20;99.90;;;;;;5083152;28;19920;-71
2022/09/03 09:50:22;;;;;;;;;;;19.20;99.90;;;;;;5082767;28;19944;-72
2022/09/03 09:52:59;;;;;;;;;;;19.30;99.90;;;;;;5082622;28;19924;-71
2022/09/03 09:55:27;;;;;;;;;;;19.30;99.90;;;;;;5083068;28;19955;-72
2022/09/03 09:58:04;;;;;;;;;;;19.40;99.90;;;;;;5082732;28;19921;-71
2022/09/03 10:00:33;;;;;;;;;;;19.50;99.90;;;;;;5082935;28;20152;-71
2022/09/03 10:02:59;;;;;;;;;;;19.60;99.90;;;;;;5082753;28;19927;-71
2022/09/03 10:05:27;;;;;;;;;;;19.70;99.90;;;;;;5083044;28;19983;-71
2022/09/03 10:07:58;;;;;;;;;;;19.80;99.90;;;;;;5083296;28;19988;-72
2022/09/03 10:10:26;;;;;;;;;;;20.10;99.90;;;;;;5078531;28;19956;-71
2022/09/03 10:12:58;;;;;;;;;;;20.30;99.90;;;;;;5065174;28;19921;-70
2022/09/03 10:15:27;;;;;;;;;;;20.50;99.90;;;;;;5065634;28;19925;-72
2022/09/03 10:18:00;;;;;;;;;;;20.60;99.90;;;;;;5065916;28;19980;-72
2022/09/03 10:20:32;;;;;;;;;;;20.70;99.90;;;;;;5065925;28;19984;-71
2022/09/03 10:23:07;;;;;;;;;;;20.90;99.90;;;;;;5065619;28;20155;-72
2022/09/03 10:25:38;;;;;;;;;;;21.00;99.90;;;;;;5065944;28;19927;-71
2022/09/03 10:28:06;;;;;;;;;;;21.10;99.90;;;;;;5065402;28;19928;-70
2022/09/03 10:30:46;;;;;;;;;;;21.10;99.90;;;;;;5065576;28;19935;-72
2022/09/03 10:33:15;;;;;;;;;;;21.10;99.90;;;;;;5065858;28;19967;-72
2022/09/03 10:35:45;;;;;;;;;;;21.20;99.90;;;;;;5065708;28;19956;-72
2022/09/03 10:38:18;;;;;;;;;;;21.30;99.90;;;;;;5065579;28;19964;-70
2022/09/03 10:40:49;;;;;;;;;;;21.40;99.90;;;;;;5065567;28;20250;-71
2022/09/03 10:43:20;;;;;;;;;;;21.60;99.90;;;;;;5065558;28;19996;-70
2022/09/03 10:45:53;;;;;;;;;;;21.80;99.90;;;;;;5065573;28;19963;-71
2022/09/03 10:48:28;;;;;;;;;;;21.90;99.90;;;;;;5065482;28;19921;-69
2022/09/03 10:50:56;;;;;;;;;;;21.90;99.90;;;;;;5065501;28;19956;-71
2022/09/03 10:53:30;;;;;;;;;;;21.90;99.90;;;;;;5065207;28;19962;-71
2022/09/03 10:56:00;;;;;;;;;;;22.00;99.90;;;;;;5065381;28;20093;-72
2022/09/03 10:58:40;;;;;;;;;;;22.20;99.90;;;;;;5065592;28;19966;-72
2022/09/03 11:01:11;;;;;;;;;;;22.40;99.90;;;;;;5065538;28;20120;-72
2022/09/03 11:03:46;;;;;;;;;;;22.60;99.90;;;;;;5065069;28;20005;-72
2022/09/03 11:06:14;;;;;;;;;;;22.90;99.90;;;;;;5065396;28;19984;-72
2022/09/03 11:08:44;;;;;;;;;;;23.10;99.90;;;;;;5065384;28;19983;-72
2022/09/03 11:11:13;;;;;;;;;;;23.10;99.90;;;;;;5064890;28;19921;-70
2022/09/03 11:13:43;;;;;;;;;;;23.10;99.90;;;;;;5065077;28;19921;-72
2022/09/03 11:16:17;;;;;;;;;;;23.10;99.90;;;;;;5065581;28;19927;-72
2022/09/03 11:18:46;;;;;;;;;;;23.10;99.90;;;;;;5063810;28;20130;-71
2022/09/03 11:21:14;;;;;;;;;;;23.10;99.90;;;;;;5063172;28;19988;-72
2022/09/03 11:23:42;;;;;;;;;;;23.00;99.90;;;;;;5063670;28;20136;-71
2022/09/03 11:26:12;;;;;;;;;;;23.00;99.90;;;;;;5064539;28;20179;-72
2022/09/03 11:28:44;;;;;;;;;;;23.00;99.90;;;;;;5062430;28;19929;-71
2022/09/03 11:31:16;;;;;;;;;;;23.00;99.90;;;;;;5063920;28;19921;-71
2022/09/03 11:33:47;;;;;;;;;;;23.10;99.90;;;;;;5063567;28;19952;-71
2022/09/03 11:36:22;;;;;;;;;;;23.20;99.90;;;;;;5064474;28;19928;-71
2022/09/03 11:38:49;;;;;;;;;;;23.40;99.90;;;;;;5064637;28;19956;-69
2022/09/03 11:41:24;;;;;;;;;;;23.60;99.90;;;;;;5064275;28;20260;-71
2022/09/03 11:43:51;;;;;;;;;;;23.80;99.90;;;;;;5064333;28;19960;-70
2022/09/03 11:46:27;;;;;;;;;;;23.70;99.90;;;;;;5063800;28;19936;-71
2022/09/03 11:48:55;;;;;;;;;;;23.80;99.90;;;;;;5064535;28;20368;-71
2022/09/03 11:51:31;;;;;;;;;;;23.70;99.90;;;;;;5064185;28;19925;-69
2022/09/03 11:53:58;;;;;;;;;;;23.60;99.90;;;;;;5064024;28;19921;-70
2022/09/03 11:56:26;;;;;;;;;;;23.50;99.90;;;;;;5063723;28;19992;-70
2022/09/03 11:59:20;;;;;;;;;;;23.40;99.90;;;;;;5063695;28;19948;-70
2022/09/03 12:01:51;;;;;;;;;;;23.30;99.90;;;;;;5039886;28;19980;-70
2022/09/03 12:04:20;;;;;;;;;;;23.30;99.90;;;;;;5063818;28;19921;-70
2022/09/03 12:06:57;;;;;;;;;;;23.40;99.90;;;;;;5064226;28;20097;-71
2022/09/03 12:09:45;;;;;;;;;;;23.40;99.90;;;;;;5064091;28;19920;-71
2022/09/03 12:12:21;;;;;;;;;;;23.60;99.90;;;;;;5047826;28;19963;-69
2022/09/03 12:14:55;;;;;;;;;;;23.70;99.90;;;;;;5064057;28;19991;-70
2022/09/03 12:17:26;;;;;;;;;;;23.80;99.90;;;;;;5064030;28;19924;-69
2022/09/03 12:19:54;;;;;;;;;;;23.90;99.90;;;;;;5064035;28;19921;-71
2022/09/03 12:22:21;;;;;;;;;;;24.00;99.90;;;;;;5063504;28;19963;-70
2022/09/03 12:24:49;;;;;;;;;;;24.30;99.90;;;;;;5060249;28;19983;-71
2022/09/03 12:27:23;;;;;;;;;;;24.50;99.90;;;;;;5054271;28;19928;-71
2022/09/03 12:29:58;;;;;;;;;;;24.90;99.90;;;;;;5049400;28;19921;-70
2022/09/03 12:32:26;;;;;;;;;;;25.20;99.90;;;;;;5059360;28;20148;-70
2022/09/03 12:34:53;;;;;;;;;;;25.30;99.90;;;;;;5063315;28;19988;-69
2022/09/03 12:37:22;;;;;;;;;;;25.50;99.90;;;;;;5063577;28;19920;-70
2022/09/03 12:39:53;;;;;;;;;;;25.60;99.90;;;;;;5054597;28;19925;-68
2022/09/03 12:42:23;;;;;;;;;;;25.60;99.90;;;;;;5058555;28;19921;-69
2022/09/03 12:44:50;;;;;;;;;;;25.50;99.90;;;;;;5063199;28;19924;-70
2022/09/03 12:47:17;;;;;;;;;;;25.40;99.90;;;;;;5063362;28;20177;-70
2022/09/03 12:49:45;;;;;;;;;;;25.20;99.90;;;;;;5063282;28;19952;-70
2022/09/03 12:52:16;;;;;;;;;;;24.90;99.90;;;;;;5062997;28;20179;-69
2022/09/03 12:54:45;;;;;;;;;;;24.70;99.90;;;;;;5062907;28;20211;-70
2022/09/03 12:57:14;;;;;;;;;;;24.50;99.90;;;;;;5063159;28;19988;-70
2022/09/03 12:59:42;;;;;;;;;;;24.40;99.90;;;;;;5062980;28;19988;-70
2022/09/03 13:02:13;;;;;;;;;;;24.30;99.90;;;;;;5042596;28;19945;-69
2022/09/03 13:04:41;;;;;;;;;;;24.20;99.90;;;;;;5061146;28;20172;-71
2022/09/03 13:07:11;;;;;;;;;;;24.00;99.90;;;;;;5044881;28;19984;-71
2022/09/03 13:09:39;;;;;;;;;;;23.90;99.90;;;;;;5056267;28;19929;-71
2022/09/03 13:12:06;;;;;;;;;;;23.80;99.90;;;;;;5062492;28;20173;-71
2022/09/03 13:14:44;;;;;;;;;;;23.80;99.90;;;;;;5062401;28;19983;-71
2022/09/03 13:17:27;;;;;;;;;;;23.80;99.90;;;;;;5056389;28;19921;-73
2022/09/03 13:20:09;;;;;;;;;;;23.70;99.90;;;;;;5062347;28;19932;-70
2022/09/03 13:22:41;;;;;;;;;;;23.70;99.90;;;;;;5060696;28;19955;-70
2022/09/03 13:25:16;;;;;;;;;;;23.80;99.90;;;;;;5062885;28;19948;-71
2022/09/03 13:27:45;;;;;;;;;;;23.80;99.90;;;;;;5061974;28;19987;-70
2022/09/03 13:30:16;;;;;;;;;;;23.70;99.90;;;;;;5062346;28;20176;-71
2022/09/03 13:32:50;;;;;;;;;;;23.60;99.90;;;;;;5062198;28;19943;-70
2022/09/03 13:35:21;;;;;;;;;;;23.60;99.90;;;;;;5058716;28;19920;-70
2022/09/03 13:37:52;;;;;;;;;;;23.60;99.90;;;;;;5064226;28;19929;-70
2022/09/03 13:40:22;;;;;;;;;;;23.60;99.90;;;;;;5061583;28;20119;-71
2022/09/03 13:42:51;;;;;;;;;;;23.60;99.90;;;;;;5061847;28;20170;-70
2022/09/03 13:45:24;;;;;;;;;;;23.60;99.90;;;;;;5066377;28;19927;-70
2022/09/03 13:50:42;;;;;;;;;;;23.60;99.90;;;;;;5066065;28;20219;-69
2022/09/03 13:53:15;;;;;;;;;;;23.60;99.90;;;;;;5062972;28;19921;-69
2022/09/03 13:55:45;;;;;;;;;;;23.60;99.90;;;;;;5055735;28;19959;-69
2022/09/03 13:58:20;;;;;;;;;;;23.50;99.90;;;;;;5066722;28;19920;-69
2022/09/03 14:00:50;;;;;;;;;;;23.50;99.90;;;;;;5066587;28;19956;-70
2022/09/03 14:03:24;;;;;;;;;;;23.40;99.90;;;;;;5066041;28;19960;-69
2022/09/03 14:06:00;;;;;;;;;;;23.40;99.90;;;;;;5066532;28;19927;-69
2022/09/03 14:08:30;;;;;;;;;;;23.30;99.90;;;;;;5046627;28;19963;-70
2022/09/03 14:11:13;;;;;;;;;;;23.30;99.90;;;;;;5046471;28;19992;-69
2022/09/03 14:13:44;;;;;;;;;;;23.10;99.90;;;;;;5063413;28;19978;-68
2022/09/03 14:16:16;;;;;;;;;;;23.10;99.90;;;;;;5066594;28;19920;-69
2022/09/03 14:18:46;;;;;;;;;;;23.00;99.90;;;;;;5066790;28;19921;-69
2022/09/03 14:21:16;;;;;;;;;;;22.90;99.90;;;;;;5066142;28;19959;-70
2022/09/03 14:23:45;;;;;;;;;;;22.80;99.90;;;;;;5065974;28;19927;-70
2022/09/03 14:26:16;;;;;;;;;;;22.70;99.90;;;;;;5065847;28;20283;-70
2022/09/03 14:28:44;;;;;;;;;;;22.60;99.90;;;;;;5065906;28;19984;-70
2022/09/03 14:31:14;;;;;;;;;;;22.60;99.90;;;;;;5065654;28;19959;-70
2022/09/03 14:33:46;;;;;;;;;;;22.50;99.90;;;;;;5065831;28;19927;-70